TimeEDT,TemperatureF,Dew PointF,Humidity,Sea Level PressureIn,VisibilityMPH,Wind Direction,Wind SpeedMPH,Gust SpeedMPH,PrecipitationIn,Events,Conditions,WindDirDegrees,DateUTC
12:53 AM,32.0,21.0,64,29.66,10.0,NE,10.4,-,N/A,,Clear,50,2013-03-25 04:53:00
1:53 AM,32.0,21.0,64,29.65,10.0,ENE,10.4,-,N/A,,Mostly Cloudy,60,2013-03-25 05:53:00
2:53 AM,32.0,21.0,64,29.64,10.0,NE,9.2,-,N/A,,Overcast,40,2013-03-25 06:53:00
3:53 AM,32.0,21.9,66,29.63,10.0,NE,9.2,-,N/A,,Overcast,40,2013-03-25 07:53:00
4:53 AM,32.0,23.0,69,29.63,10.0,NNE,9.2,-,N/A,,Overcast,30,2013-03-25 08:53:00
5:53 AM,30.9,23.0,72,29.63,10.0,NE,9.2,-,N/A,,Overcast,40,2013-03-25 09:53:00
6:53 AM,30.9,21.9,69,29.62,10.0,NE,8.1,-,0.00,,Overcast,50,2013-03-25 10:53:00
7:53 AM,30.0,24.1,79,29.61,3.0,NE,8.1,-,0.00,Snow,Light Snow,50,2013-03-25 11:53:00
8:53 AM,30.9,25.0,79,29.61,7.0,NE,8.1,-,0.00,Snow,Light Snow,50,2013-03-25 12:53:00
9:12 AM,30.2,26.6,86,29.59,2.0,ENE,8.1,-,0.00,Snow,Light Snow,60,2013-03-25 13:12:00
9:30 AM,30.2,26.6,86,29.59,1.8,NE,9.2,-,0.00,Snow,Light Snow,50,2013-03-25 13:30:00
9:43 AM,30.2,28.4,93,29.59,2.0,NE,6.9,-,0.00,Snow,Light Snow,40,2013-03-25 13:43:00
9:53 AM,30.9,28.0,89,29.61,5.0,NE,6.9,-,0.00,Snow,Light Snow,50,2013-03-25 13:53:00
10:53 AM,35.1,28.9,78,29.61,10.0,NE,6.9,-,0.00,,Mostly Cloudy,40,2013-03-25 14:53:00
11:53 AM,36.0,28.0,73,29.61,10.0,North,9.2,-,N/A,,Overcast,10,2013-03-25 15:53:00
12:53 PM,37.0,27.0,67,29.61,10.0,NNE,9.2,-,N/A,,Overcast,30,2013-03-25 16:53:00
1:53 PM,39.0,27.0,62,29.60,10.0,NNE,13.8,-,N/A,,Partly Cloudy,30,2013-03-25 17:53:00
2:53 PM,37.9,27.0,65,29.60,10.0,NNE,12.7,24.2,N/A,,Overcast,30,2013-03-25 18:53:00
3:53 PM,37.0,28.0,70,29.61,10.0,NNE,11.5,-,N/A,,Overcast,20,2013-03-25 19:53:00
4:53 PM,37.9,28.0,68,29.63,10.0,ENE,9.2,-,N/A,,Overcast,60,2013-03-25 20:53:00
5:53 PM,37.0,27.0,67,29.66,10.0,NNE,8.1,-,N/A,,Overcast,20,2013-03-25 21:53:00
6:53 PM,37.0,27.0,67,29.68,10.0,NNE,13.8,19.6,N/A,,Overcast,30,2013-03-25 22:53:00
7:53 PM,36.0,26.1,67,29.72,10.0,NE,6.9,-,N/A,,Overcast,40,2013-03-25 23:53:00
8:53 PM,35.1,26.1,70,29.74,10.0,NNE,5.8,-,N/A,,Overcast,30,2013-03-26 00:53:00
9:53 PM,33.1,26.1,75,29.76,10.0,NE,6.9,-,N/A,,Clear,40,2013-03-26 01:53:00
10:53 PM,32.0,26.1,79,29.77,10.0,Calm,Calm,-,N/A,,Partly Cloudy,0,2013-03-26 02:53:00
11:53 PM,28.9,26.1,89,29.78,10.0,Calm,Calm,-,N/A,,Overcast,0,2013-03-26 03:53:00